Holloway, Louisiana
Current Conditions -  °F | °C
As of 4:21 AM on Wednesday 22 Oct 2014 (Local Time) from KESF Reporting Station
Haze Haze  
Wind Chill: 55°   Ceiling: Unl
Heat Index: 55°   Visibility: 1.7mi
Dew Point: 54°   Wind: 0mph
Humidity: 96%   Direction: NA
Pressure: 30.06"   Gusts: NA
Location:  31.3606°N, 92.2142°W
Report Text: KESF 220921Z AUTO 00000KT 1 3/4SM BR FEW004 13/12 A3006 RMK AO2 T01280122
Loading
Personal Weather Stations






























Interactive Weather Map New forecast layout! Learn more

10-Day Weather Forecast

Advertisements
Track Severe Weather on mobile